Time;durP1;ratioP1;P1;durP2;ratioP2;P2;SDS_P1;SDS_P2;PMS_P1;PMS_P2;Temp;Humidity;BMP_temperature;BMP_pressure;BME280_temperature;BME280_humidity;BME280_pressure;Samples;Min_cycle;Max_cycle;Signal;HPM_P1;HPM_P2
2022/11/12 00:00:11;;;;;;;19.75;13.22;;;;;;;6.41;96.06;101110.80;1656325;85;21084;-80
2022/11/12 00:02:56;;;;;;;23.62;14.75;;;;;;;6.44;95.99;101105.77;1646714;85;21060;-80
2022/11/12 00:05:44;;;;;;;17.10;13.35;;;;;;;6.48;95.71;101103.28;1645730;85;21094;-78
2022/11/12 00:08:29;;;;;;;20.52;13.28;;;;;;;6.41;95.85;101105.52;1646191;85;21483;-80
2022/11/12 00:11:14;;;;;;;19.17;13.20;;;;;;;6.44;95.90;101105.77;1650455;85;21043;-79
2022/11/12 00:14:01;;;;;;;21.15;15.48;;;;;;;6.53;95.67;101117.46;1649365;85;21023;-77
2022/11/12 00:16:46;;;;;;;22.58;14.43;;;;;;;6.48;95.64;101113.84;1624966;87;21133;-76
2022/11/12 00:19:31;;;;;;;18.65;12.55;;;;;;;6.43;95.72;101118.59;1639964;87;21135;-80
2022/11/12 00:22:16;;;;;;;24.67;14.40;;;;;;;6.51;95.35;101116.27;1633893;86;21217;-81
2022/11/12 00:25:02;;;;;;;24.23;13.80;;;;;;;6.56;95.07;101110.17;1683635;83;21094;-81
2022/11/12 00:27:47;;;;;;;20.45;14.70;;;;;;;6.48;95.06;101112.52;1678741;83;21070;-78
2022/11/12 00:30:35;;;;;;;18.10;13.95;;;;;;;6.48;94.81;101107.23;1679305;84;21063;-79
2022/11/12 00:33:20;;;;;;;25.40;13.88;;;;;;;6.53;94.51;101107.77;1675230;83;21577;-78
2022/11/12 00:36:05;;;;;;;20.48;14.73;;;;;;;6.47;94.68;101106.41;1681002;83;21113;-79
2022/11/12 00:38:50;;;;;;;17.48;14.03;;;;;;;6.44;94.67;101101.81;1678563;83;21010;-77
2022/11/12 00:41:35;;;;;;;19.12;13.43;;;;;;;6.49;94.47;101106.30;1645391;85;21047;-77
2022/11/12 00:44:20;;;;;;;20.02;13.83;;;;;;;6.51;94.43;101112.31;1645256;86;21506;-79
2022/11/12 00:47:06;;;;;;;21.30;13.15;;;;;;;6.46;94.61;101111.30;1638396;85;21116;-79
2022/11/12 00:49:51;;;;;;;21.75;12.90;;;;;;;6.49;94.53;101112.42;1649711;85;21503;-79
2022/11/12 00:53:14;;;;;;;18.70;12.87;;;;;;;6.62;94.13;101107.58;1846569;75;26552;-77
2022/11/12 00:56:03;;;;;;;18.12;13.60;;;;;;;6.55;94.20;101115.55;1816932;77;20993;-80
2022/11/12 00:58:47;;;;;;;18.70;12.85;;;;;;;6.51;94.31;101113.63;1816099;78;21098;-79
2022/11/12 01:01:33;;;;;;;18.50;14.35;;;;;;;6.55;94.17;101111.14;1816482;77;20984;-79
2022/11/12 01:04:18;;;;;;;17.90;13.72;;;;;;;6.60;93.98;101106.84;1812678;77;21037;-78
2022/11/12 01:07:03;;;;;;;22.55;13.83;;;;;;;6.55;94.02;101103.67;1818731;78;21513;-79
2022/11/12 01:09:50;;;;;;;19.55;12.88;;;;;;;6.57;94.05;101103.12;1810354;77;20948;-78
2022/11/12 01:12:36;;;;;;;19.87;12.58;;;;;;;6.59;93.96;101098.58;1812402;77;21272;-79
2022/11/12 01:15:21;;;;;;;19.92;13.18;;;;;;;6.57;94.18;101103.95;1815404;77;21036;-77
2022/11/12 01:18:08;;;;;;;20.82;13.25;;;;;;;6.59;94.19;101101.22;1799823;77;21044;-79
2022/11/12 01:20:54;;;;;;;19.48;12.80;;;;;;;6.65;93.78;101093.69;1818561;77;20995;-79
2022/11/12 01:23:40;;;;;;;22.32;14.05;;;;;;;6.59;93.89;101097.25;1813771;77;21009;-78
2022/11/12 01:26:27;;;;;;;18.98;12.93;;;;;;;6.56;93.90;101100.09;1815633;77;21085;-78
2022/11/12 01:29:12;;;;;;;17.65;13.20;;;;;;;6.61;93.73;101096.66;1814041;77;21543;-78
2022/11/12 01:31:57;;;;;;;21.05;13.15;;;;;;;6.55;93.78;101093.11;1818647;77;21495;-78
2022/11/12 01:34:41;;;;;;;15.70;11.00;;;;;;;6.46;94.08;101092.82;1810069;77;21552;-76
2022/11/12 01:37:26;;;;;;;16.17;12.70;;;;;;;6.50;94.11;101094.77;1818709;77;21133;-76
2022/11/12 01:40:11;;;;;;;17.25;12.05;;;;;;;6.47;93.92;101099.80;1814548;77;21921;-78
2022/11/12 01:42:56;;;;;;;16.95;11.68;;;;;;;6.38;94.35;101095.65;1820456;78;21013;-78
2022/11/12 01:45:46;;;;;;;16.93;12.68;;;;;;;6.40;94.32;101097.22;1816702;77;21469;-77
2022/11/12 01:48:38;;;;;;;16.95;13.18;;;;;;;6.43;94.31;101100.11;1822481;78;21080;-78
2022/11/12 01:51:25;;;;;;;17.50;12.15;;;;;;;6.35;94.47;101099.33;1808615;77;20992;-77
2022/11/12 01:54:11;;;;;;;16.37;12.20;;;;;;;6.39;94.38;101102.12;1827443;78;21191;-81
2022/11/12 01:56:56;;;;;;;17.48;12.88;;;;;;;6.42;94.34;101103.23;1740909;81;21016;-81
2022/11/12 01:59:44;;;;;;;16.20;12.18;;;;;;;6.36;94.57;101099.71;1748319;80;21088;-80
2022/11/12 02:02:30;;;;;;;20.95;12.03;;;;;;;6.37;94.73;101098.74;1774249;80;21063;-81
2022/11/12 02:05:15;;;;;;;21.00;13.43;;;;;;;6.46;94.50;101099.42;1781768;78;21043;-80
2022/11/12 02:08:00;;;;;;;17.17;12.65;;;;;;;6.44;94.42;101100.01;1782646;80;21959;-80
2022/11/12 02:10:45;;;;;;;17.73;11.85;;;;;;;6.39;94.68;101098.16;1774766;78;21013;-80
2022/11/12 02:16:39;;;;;;;17.30;12.27;;;;;;;6.52;93.92;101077.51;1779657;79;21576;-81
2022/11/12 02:19:25;;;;;;;13.10;10.10;;;;;;;6.42;94.21;101076.00;1770561;78;23208;-80
2022/11/12 02:22:11;;;;;;;19.62;12.35;;;;;;;6.48;94.19;101080.36;1789806;80;21619;-77
2022/11/12 02:24:56;;;;;;;12.70;9.48;;;;;;;6.48;94.12;101079.03;1779482;79;21025;-80
2022/11/12 02:27:43;;;;;;;13.85;10.35;;;;;;;6.50;94.20;101082.89;1783663;80;21080;-76
2022/11/12 02:30:37;;;;;;;15.25;11.22;;;;;;;6.57;93.95;101085.47;1770729;78;21046;-76
2022/11/12 02:33:22;;;;;;;14.63;10.45;;;;;;;6.55;93.84;101093.98;1785017;80;21067;-78
2022/11/12 02:36:07;;;;;;;13.50;10.05;;;;;;;6.61;93.76;101088.74;1779062;80;21224;-75
2022/11/12 02:38:52;;;;;;;17.27;11.20;;;;;;;6.66;93.54;101087.91;1771510;78;21584;-77
2022/11/12 02:41:37;;;;;;;17.15;11.20;;;;;;;6.63;93.69;101090.31;1767297;80;21093;-79
2022/11/12 02:44:23;;;;;;;15.05;11.10;;;;;;;6.62;93.71;101090.41;1760101;80;21279;-77
2022/11/12 02:47:08;;;;;;;17.20;11.73;;;;;;;6.75;93.45;101092.55;1758911;80;21030;-77
2022/11/12 02:49:52;;;;;;;16.15;10.88;;;;;;;6.75;93.29;101089.91;1734850;80;21126;-79
2022/11/12 02:52:38;;;;;;;20.08;11.95;;;;;;;6.73;93.30;101090.49;1748371;80;21033;-77
2022/11/12 02:55:24;;;;;;;15.50;10.25;;;;;;;6.76;92.76;101090.28;1746880;80;21553;-75
2022/11/12 02:58:08;;;;;;;17.17;10.82;;;;;;;6.83;92.35;101084.91;1750443;80;21078;-78
2022/11/12 03:00:54;;;;;;;16.20;10.25;;;;;;;6.76;92.30;101073.12;1752341;81;20986;-79
2022/11/12 03:03:40;;;;;;;15.00;10.55;;;;;;;6.79;92.26;101082.13;1751501;81;21013;-79
2022/11/12 03:06:26;;;;;;;17.77;11.15;;;;;;;6.76;92.17;101088.09;1820376;77;21052;-78
2022/11/12 03:09:11;;;;;;;17.98;11.43;;;;;;;6.66;92.22;101085.27;1813630;78;21088;-78
2022/11/12 03:11:57;;;;;;;14.13;10.03;;;;;;;6.70;92.10;101085.42;1811078;78;21295;-78
2022/11/12 03:14:42;;;;;;;15.28;11.18;;;;;;;6.71;91.89;101084.48;1752177;80;21084;-80
2022/11/12 03:17:27;;;;;;;15.48;11.38;;;;;;;6.62;92.05;101083.81;1815566;77;21057;-79
2022/11/12 03:20:12;;;;;;;14.55;11.53;;;;;;;6.61;92.12;101083.46;1801641;78;21095;-78
2022/11/12 03:23:01;;;;;;;15.05;10.60;;;;;;;6.64;91.92;101095.94;1808380;77;21012;-77
2022/11/12 03:25:46;;;;;;;13.60;11.08;;;;;;;6.60;92.09;101096.28;1779085;79;21031;-77
2022/11/12 03:28:32;;;;;;;14.95;10.53;;;;;;;6.62;92.20;101087.77;1814276;77;21564;-74
2022/11/12 03:31:17;;;;;;;15.28;11.83;;;;;;;6.71;91.99;101090.25;1814374;78;21181;-78
2022/11/12 03:34:03;;;;;;;20.50;12.28;;;;;;;6.68;92.01;101088.65;1804275;77;20994;-77
2022/11/12 03:36:48;;;;;;;15.95;10.68;;;;;;;6.64;91.96;101099.06;1818080;78;21550;-78
2022/11/12 03:39:35;;;;;;;17.45;11.30;;;;;;;6.71;91.79;101095.53;1814015;77;21080;-80
2022/11/12 03:42:20;;;;;;;16.48;11.93;;;;;;;6.69;91.78;101097.78;1816712;78;22319;-79
2022/11/12 03:45:07;;;;;;;17.52;11.93;;;;;;;6.62;91.90;101091.25;1802898;77;21082;-79
2022/11/12 03:47:55;;;;;;;19.87;11.10;;;;;;;6.65;91.79;101083.60;1815257;78;21060;-80
2022/11/12 03:50:40;;;;;;;14.78;11.03;;;;;;;6.69;91.48;101086.39;1802438;78;21062;-79
2022/11/12 03:53:26;;;;;;;17.82;11.35;;;;;;;6.60;91.60;101087.87;1796606;77;21524;-77
2022/11/12 03:56:11;;;;;;;16.73;11.25;;;;;;;6.58;91.71;101091.10;1790785;78;21560;-75
2022/11/12 03:58:55;;;;;;;20.43;14.30;;;;;;;6.63;91.48;101084.19;1794826;78;21100;-76
2022/11/12 04:01:41;;;;;;;21.87;14.53;;;;;;;6.59;91.53;101088.84;1790672;78;21061;-79
2022/11/12 04:08:34;;;;;;;18.67;15.25;;;;;;;6.49;92.07;101089.98;1794487;78;21067;-76
2022/11/12 04:10:17;;;;;;;20.57;15.40;;;;;;;6.59;92.06;101086.69;1792573;78;21559;-78
2022/11/12 04:22:26;;;;;;;18.32;13.38;;;;;;;6.59;92.44;101085.38;1774459;80;21024;-78
2022/11/12 04:28:16;;;;;;;18.02;12.05;;;;;;;6.56;92.46;101081.61;1789993;78;22543;-76
2022/11/12 04:31:01;;;;;;;16.25;12.60;;;;;;;6.61;92.31;101072.90;1780371;80;21023;-77
2022/11/12 04:33:47;;;;;;;18.50;11.18;;;;;;;6.53;92.52;101070.80;1791765;78;21061;-77
2022/11/12 04:36:33;;;;;;;15.13;11.35;;;;;;;6.57;92.71;101080.67;1794347;80;21093;-78
2022/11/12 04:39:18;;;;;;;19.92;12.63;;;;;;;6.61;92.57;101086.10;1794523;78;21001;-77
2022/11/12 04:45:09;;;;;;;20.08;12.43;;;;;;;6.52;92.94;101084.11;1788979;80;20989;-78
2022/11/12 04:47:54;;;;;;;17.92;11.78;;;;;;;6.65;92.76;101079.64;1783062;78;21021;-77
2022/11/12 04:50:40;;;;;;;21.62;15.72;;;;;;;6.59;92.93;101062.44;1796764;78;20986;-77
2022/11/12 04:53:26;;;;;;;15.80;13.50;;;;;;;6.57;93.31;101059.06;1808866;77;21021;-78
2022/11/12 04:56:11;;;;;;;21.27;13.98;;;;;;;6.66;93.18;101060.19;1817659;78;21181;-79
2022/11/12 04:58:56;;;;;;;21.23;17.85;;;;;;;6.62;93.31;101054.77;1820297;78;21009;-78
2022/11/12 05:01:41;;;;;;;23.20;15.28;;;;;;;6.60;93.68;101067.23;1804167;77;21008;-79
2022/11/12 05:04:28;;;;;;;17.35;12.68;;;;;;;6.66;93.62;101063.70;1816606;77;21017;-77
2022/11/12 05:07:13;;;;;;;19.15;14.28;;;;;;;6.70;93.59;101064.29;1803260;77;21056;-78
2022/11/12 05:09:58;;;;;;;18.07;12.80;;;;;;;6.66;93.75;101078.67;1808539;77;21302;-78
2022/11/12 05:12:45;;;;;;;17.87;13.50;;;;;;;6.68;94.00;101074.13;1806781;77;20980;-77
2022/11/12 05:15:30;;;;;;;16.85;13.25;;;;;;;6.76;94.04;101075.76;1819915;77;21077;-77
2022/11/12 05:18:15;;;;;;;16.70;12.63;;;;;;;6.76;94.02;101080.17;1810839;78;21218;-78
2022/11/12 05:22:04;;;;;;;20.27;12.40;;;;;;;6.74;94.27;101088.23;1815527;77;20993;-79
2022/11/12 05:23:48;;;;;;;16.57;13.65;;;;;;;6.87;94.13;101086.84;1811863;78;21088;-77
2022/11/12 05:26:34;;;;;;;17.25;12.65;;;;;;;6.89;93.79;101095.05;1801106;78;21068;-77
2022/11/12 05:29:19;;;;;;;18.42;11.73;;;;;;;6.86;93.76;101094.42;1807740;77;21013;-77
2022/11/12 05:32:05;;;;;;;16.32;12.70;;;;;;;6.92;93.63;101092.66;1818225;77;21001;-79
2022/11/12 05:34:50;;;;;;;18.55;13.43;;;;;;;6.97;93.60;101094.95;1801613;77;21032;-78
2022/11/12 05:37:35;;;;;;;18.12;13.58;;;;;;;6.90;93.57;101086.64;1810673;77;21112;-79
2022/11/12 05:40:20;;;;;;;16.70;13.00;;;;;;;6.94;93.67;101093.38;1815452;77;21568;-78
2022/11/12 05:43:05;;;;;;;20.08;13.45;;;;;;;7.00;93.58;101096.89;1817881;78;20986;-77
2022/11/12 05:45:50;;;;;;;19.45;13.70;;;;;;;6.95;93.75;101104.79;1781430;78;21029;-77
2022/11/12 05:48:35;;;;;;;22.80;13.35;;;;;;;6.99;93.58;101102.28;1800000;77;21041;-78
2022/11/12 05:51:20;;;;;;;17.85;13.75;;;;;;;7.06;93.21;101110.14;1815364;77;21282;-77
2022/11/12 05:54:05;;;;;;;20.68;13.40;;;;;;;7.00;93.30;101107.47;1815952;77;21576;-78
2022/11/12 05:56:52;;;;;;;21.82;14.10;;;;;;;6.91;93.53;101098.05;1819844;77;21042;-79
2022/11/12 05:59:38;;;;;;;16.85;13.68;;;;;;;6.98;93.57;101093.52;1821255;78;21435;-79
2022/11/12 06:02:23;;;;;;;17.57;14.00;;;;;;;7.04;93.43;101099.67;1820481;77;21024;-76
2022/11/12 06:05:08;;;;;;;19.50;14.33;;;;;;;6.99;93.56;101098.33;1819467;77;21883;-79
2022/11/12 06:07:53;;;;;;;19.25;13.65;;;;;;;7.00;93.73;101109.27;1805954;77;22222;-78
2022/11/12 06:10:40;;;;;;;16.45;14.05;;;;;;;7.10;93.58;101097.06;1800254;77;21009;-78
2022/11/12 06:13:25;;;;;;;26.27;16.85;;;;;;;7.13;93.76;101095.53;1818500;77;21052;-77
2022/11/12 06:16:10;;;;;;;19.02;14.87;;;;;;;7.12;93.94;101095.64;1818646;77;21030;-79
2022/11/12 06:18:55;;;;;;;20.30;13.95;;;;;;;7.19;93.92;101084.98;1831877;77;21240;-79
2022/11/12 06:21:42;;;;;;;20.55;15.32;;;;;;;7.26;93.77;101088.39;1806625;77;21103;-77
2022/11/12 06:24:29;;;;;;;21.05;14.13;;;;;;;7.25;93.81;101092.46;1813241;77;21012;-78
2022/11/12 06:27:14;;;;;;;28.75;14.13;;;;;;;7.27;93.91;101093.19;1814599;77;21518;-78
2022/11/12 06:29:59;;;;;;;17.73;14.50;;;;;;;7.36;93.73;101091.64;1818060;77;21049;-79
2022/11/12 06:32:48;;;;;;;20.43;14.85;;;;;;;7.28;93.82;101098.37;1804067;78;21505;-78
2022/11/12 06:35:33;;;;;;;20.37;15.00;;;;;;;7.30;93.97;101088.97;1814259;77;20967;-79
2022/11/12 06:38:18;;;;;;;19.77;15.08;;;;;;;7.40;93.69;101087.84;1815090;77;20997;-79
2022/11/12 06:41:04;;;;;;;19.57;14.73;;;;;;;7.38;93.80;101088.41;1803677;78;21051;-78
2022/11/12 06:43:49;;;;;;;18.30;13.90;;;;;;;7.47;93.57;101085.08;1806423;77;20966;-78
2022/11/12 06:46:35;;;;;;;21.77;13.88;;;;;;;7.47;93.23;101080.66;1808593;77;21307;-79
2022/11/12 06:49:21;;;;;;;21.02;14.70;;;;;;;7.44;92.98;101061.53;1813907;77;21531;-80
2022/11/12 06:52:06;;;;;;;27.00;15.05;;;;;;;7.50;92.88;101070.32;1815833;77;21048;-80
2022/11/12 06:54:52;;;;;;;23.12;15.55;;;;;;;7.47;92.89;101066.57;1823226;77;21017;-81
2022/11/12 06:57:37;;;;;;;22.00;17.10;;;;;;;7.51;92.94;101064.55;1830509;77;21012;-80
2022/11/12 07:00:22;;;;;;;22.32;15.25;;;;;;;7.52;92.88;101055.17;1826958;77;21508;-80
2022/11/12 07:03:08;;;;;;;24.32;16.57;;;;;;;7.49;93.16;101050.11;1823493;77;20985;-81
2022/11/12 07:05:53;;;;;;;22.60;15.63;;;;;;;7.53;93.13;101050.72;1827821;78;21005;-79
2022/11/12 07:08:41;;;;;;;21.33;15.85;;;;;;;7.56;92.98;101038.60;1816670;78;20969;-81
2022/11/12 07:11:27;;;;;;;21.77;15.63;;;;;;;7.52;93.15;101034.52;1828220;77;20989;-81
2022/11/12 07:14:13;;;;;;;23.92;16.93;;;;;;;7.56;93.18;101044.73;1826246;77;21011;-81
2022/11/12 07:16:59;;;;;;;23.73;16.00;;;;;;;7.62;93.08;101053.51;1824549;77;21001;-81
2022/11/12 07:19:45;;;;;;;20.95;16.45;;;;;;;7.58;93.22;101045.45;1813388;77;20982;-81
2022/11/12 07:22:33;;;;;;;21.93;16.55;;;;;;;7.66;93.18;101049.67;1829623;77;21088;-80
2022/11/12 07:25:18;;;;;;;21.00;16.07;;;;;;;7.75;92.99;101057.88;1826258;77;21032;-81
2022/11/12 07:28:04;;;;;;;20.15;16.40;;;;;;;7.84;92.80;101063.77;1816348;77;21233;-81
2022/11/12 07:31:00;;;;;;;19.55;15.60;;;;;;;7.84;92.69;101054.05;1814999;78;21017;-80
2022/11/12 07:33:47;;;;;;;27.02;18.00;;;;;;;7.98;92.65;101054.30;1811181;77;21068;-79
2022/11/12 07:36:34;;;;;;;25.27;17.35;;;;;;;8.10;91.98;101046.37;1819267;77;21184;-80
2022/11/12 07:39:21;;;;;;;24.30;16.42;;;;;;;8.12;91.59;101054.54;1813412;77;20991;-78
2022/11/12 07:42:05;;;;;;;23.22;15.40;;;;;;;8.20;91.31;101054.77;1808009;77;21463;-77
2022/11/12 07:44:50;;;;;;;21.25;16.27;;;;;;;8.30;91.07;101045.62;1820448;77;21060;-79
2022/11/12 07:47:36;;;;;;;20.12;15.48;;;;;;;8.33;91.25;101048.53;1818244;78;21047;-77
2022/11/12 07:50:21;;;;;;;23.50;15.63;;;;;;;8.43;90.97;101045.05;1830432;77;21062;-76
2022/11/12 07:53:06;;;;;;;24.40;17.20;;;;;;;8.62;90.60;101040.44;1817821;77;21049;-78
2022/11/12 07:55:57;;;;;;;20.60;16.45;;;;;;;8.72;90.06;101043.68;1815435;78;22433;-78
2022/11/12 07:58:43;;;;;;;19.65;16.00;;;;;;;8.75;90.03;101042.95;1819442;77;20979;-78
2022/11/12 08:01:35;;;;;;;22.32;17.32;;;;;;;8.93;89.26;101051.20;1815301;77;21051;-78
2022/11/12 08:04:20;;;;;;;19.15;15.90;;;;;;;9.05;88.75;101045.38;1804112;79;21021;-78
2022/11/12 08:07:05;;;;;;;23.57;18.32;;;;;;;9.12;88.83;101049.70;1817352;77;21028;-75
2022/11/12 08:09:50;;;;;;;27.48;17.42;;;;;;;9.19;88.77;101058.35;1815641;77;21383;-77
2022/11/12 08:12:35;;;;;;;21.80;17.98;;;;;;;9.38;88.34;101058.13;1804307;77;21048;-77
2022/11/12 08:15:21;;;;;;;25.00;18.32;;;;;;;9.59;87.96;101058.98;1822368;77;20977;-77
2022/11/12 08:18:06;;;;;;;29.23;18.32;;;;;;;9.72;87.42;101056.14;1806550;77;21008;-76
2022/11/12 08:20:51;;;;;;;26.48;17.07;;;;;;;9.83;86.29;101064.03;1818613;78;21009;-77
2022/11/12 08:23:39;;;;;;;24.65;17.30;;;;;;;10.01;85.05;101058.95;1812748;78;21497;-76
2022/11/12 08:26:25;;;;;;;27.07;18.45;;;;;;;10.17;84.88;101048.33;1798252;77;21544;-76
2022/11/12 08:29:11;;;;;;;26.20;17.92;;;;;;;10.33;84.83;101043.37;1808926;78;20970;-77
2022/11/12 08:31:56;;;;;;;19.77;15.98;;;;;;;10.50;84.03;101066.30;1818674;77;20994;-77
2022/11/12 08:34:42;;;;;;;21.40;16.42;;;;;;;10.74;82.55;101044.20;1822444;78;21035;-78
2022/11/12 08:37:27;;;;;;;24.45;17.23;;;;;;;10.86;81.22;101050.23;1802615;77;21216;-76
2022/11/12 08:40:12;;;;;;;23.27;16.50;;;;;;;10.88;82.02;101036.31;1815488;77;21586;-78
2022/11/12 08:43:03;;;;;;;23.40;17.12;;;;;;;10.90;81.51;101039.67;1801637;77;21014;-77
2022/11/12 08:45:49;;;;;;;30.15;18.65;;;;;;;11.00;81.67;101042.33;1806547;78;20997;-78
2022/11/12 08:48:34;;;;;;;29.10;21.05;;;;;;;11.06;80.85;101043.09;1817028;77;21026;-77
2022/11/12 08:51:19;;;;;;;24.52;17.07;;;;;;;11.01;81.46;101040.04;1814736;77;21880;-78
2022/11/12 08:54:05;;;;;;;22.95;15.68;;;;;;;10.96;81.05;101039.60;1825689;77;21002;-76
2022/11/12 08:56:50;;;;;;;20.45;15.85;;;;;;;11.00;81.00;101038.34;1809890;77;21027;-76
2022/11/12 08:59:35;;;;;;;20.88;17.20;;;;;;;11.05;80.70;101032.12;1816256;78;20992;-78
2022/11/12 09:02:21;;;;;;;21.20;17.27;;;;;;;10.95;80.76;101041.90;1791638;77;21070;-76
2022/11/12 09:05:06;;;;;;;22.30;16.30;;;;;;;10.90;81.27;101025.05;1800067;78;21281;-77
2022/11/12 09:08:01;;;;;;;19.35;16.60;;;;;;;10.96;81.14;101028.47;1824469;78;21049;-77
2022/11/12 09:10:46;;;;;;;20.50;16.95;;;;;;;11.05;80.88;101029.94;1825344;78;20999;-77
2022/11/12 09:13:31;;;;;;;20.40;15.93;;;;;;;11.01;81.19;101019.59;1816777;77;20994;-77
2022/11/12 09:16:16;;;;;;;23.47;17.02;;;;;;;10.98;80.97;101020.36;1807864;77;21039;-78
2022/11/12 09:19:02;;;;;;;27.73;18.15;;;;;;;11.05;80.57;101028.14;1806837;77;21236;-78
2022/11/12 09:21:48;;;;;;;25.82;18.65;;;;;;;11.08;80.82;101025.19;1821352;77;21010;-74
2022/11/12 09:24:33;;;;;;;18.50;15.58;;;;;;;11.08;81.25;101025.68;1810577;77;21804;-74
2022/11/12 09:27:18;;;;;;;20.92;15.10;;;;;;;11.11;81.05;101027.58;1817662;77;21050;-74
2022/11/12 09:30:06;;;;;;;25.55;16.97;;;;;;;11.27;80.94;101023.01;1761382;80;21095;-73
2022/11/12 09:32:57;;;;;;;21.52;15.43;;;;;;;11.35;80.85;101020.97;1738798;80;21183;-75
2022/11/12 09:35:44;;;;;;;20.35;16.48;;;;;;;11.44;80.93;101029.44;1746843;81;21055;-75
2022/11/12 09:38:30;;;;;;;19.77;14.00;;;;;;;11.50;80.29;101018.72;1764485;80;21100;-76
2022/11/12 09:44:19;;;;;;;21.23;15.55;;;;;;;11.84;78.02;101016.87;1736593;80;20993;-77
2022/11/12 09:47:15;;;;;;;22.95;16.67;;;;;;;11.95;78.79;101018.05;1753235;80;21889;-75
2022/11/12 09:50:20;;;;;;;23.20;16.25;;;;;;;12.09;77.54;101015.41;1765983;79;21571;-76
2022/11/12 09:53:34;;;;;;;17.70;13.88;;;;;;;12.17;77.54;101018.20;1761210;79;21049;-76
2022/11/12 09:56:21;;;;;;;17.62;14.10;;;;;;;12.31;76.27;101022.19;1759122;79;21039;-76
2022/11/12 09:59:12;;;;;;;23.42;15.48;;;;;;;12.36;75.64;101020.77;1745561;79;21127;-75
2022/11/12 10:02:38;;;;;;;19.82;13.40;;;;;;;12.33;75.17;101019.71;1798983;78;21189;-76
2022/11/12 10:05:35;;;;;;;17.45;13.38;;;;;;;12.26;74.85;101019.95;1814994;77;21430;-76
2022/11/12 10:08:44;;;;;;;19.52;12.25;;;;;;;12.22;75.33;101010.58;1820106;77;21033;-76
2022/11/12 10:19:33;;;;;;;16.25;12.03;;;;;;;12.96;73.59;101019.36;1792957;77;20998;-74
2022/11/12 10:22:49;;;;;;;16.27;12.40;;;;;;;13.36;72.60;101010.90;1742806;81;25684;-74
2022/11/12 10:25:34;;;;;;;18.25;12.55;;;;;;;14.04;69.77;101004.47;1806998;77;21496;-74
2022/11/12 10:28:31;;;;;;;16.73;12.80;;;;;;;14.69;68.29;100995.36;1787320;77;20990;-74
2022/11/12 10:31:18;;;;;;;17.30;11.97;;;;;;;15.44;66.69;100993.05;1820930;77;22449;-75
2022/11/12 10:34:20;;;;;;;17.87;12.07;;;;;;;15.85;63.98;100990.81;1814631;78;21145;-74
2022/11/12 10:37:22;;;;;;;16.00;12.98;;;;;;;15.81;63.24;100989.49;1806298;77;21477;-74
2022/11/12 10:40:38;;;;;;;13.55;12.00;;;;;;;15.43;63.75;100988.72;1774754;80;21049;-74
2022/11/12 10:43:24;;;;;;;15.98;13.55;;;;;;;14.91;64.98;100983.20;1749344;80;21104;-73
2022/11/12 10:46:21;;;;;;;16.12;12.95;;;;;;;14.55;66.30;100979.94;1747666;80;21018;-74
2022/11/12 10:49:17;;;;;;;13.15;11.30;;;;;;;14.40;66.87;100977.56;1818063;78;21134;-75
2022/11/12 10:52:02;;;;;;;21.70;12.90;;;;;;;14.23;67.12;100972.14;1813232;77;20985;-75
2022/11/12 10:54:47;;;;;;;18.07;12.70;;;;;;;13.98;67.59;100971.21;1810531;78;21492;-73
2022/11/12 10:57:32;;;;;;;16.52;11.88;;;;;;;13.63;68.43;100972.21;1802577;77;21016;-75
2022/11/12 11:00:21;;;;;;;18.73;12.53;;;;;;;13.44;69.25;100963.91;1778608;78;21002;-75
2022/11/12 11:03:23;;;;;;;16.97;13.03;;;;;;;13.35;69.89;100967.88;1793321;78;21213;-73
2022/11/12 11:06:17;;;;;;;17.55;13.30;;;;;;;13.23;70.04;100974.91;1791399;78;21508;-76
2022/11/12 11:09:15;;;;;;;19.62;12.35;;;;;;;13.06;70.83;100961.45;1780476;80;21477;-74
2022/11/12 11:12:01;;;;;;;16.12;11.90;;;;;;;13.03;71.07;100965.75;1776267;80;21034;-74
2022/11/12 11:14:45;;;;;;;22.20;12.15;;;;;;;12.94;71.02;100962.66;1790338;78;21051;-74
2022/11/12 11:17:31;;;;;;;16.40;11.73;;;;;;;12.79;71.61;100970.39;1795477;78;21860;-74
2022/11/12 11:20:23;;;;;;;19.62;11.85;;;;;;;12.67;71.83;100967.12;1771639;80;21037;-74
2022/11/12 11:23:24;;;;;;;15.18;12.53;;;;;;;12.61;72.17;100969.53;1793032;78;21039;-76
2022/11/12 11:26:42;;;;;;;17.95;12.68;;;;;;;12.60;72.42;100967.38;1786378;78;20978;-75
2022/11/12 11:29:57;;;;;;;17.50;12.13;;;;;;;12.58;72.73;100966.69;1795068;80;21991;-74
2022/11/12 11:32:59;;;;;;;14.35;10.75;;;;;;;12.60;72.65;100966.03;1794738;78;21186;-78
2022/11/12 11:35:56;;;;;;;13.83;10.68;;;;;;;13.22;71.95;100962.58;1792645;78;21065;-78
2022/11/12 11:38:58;;;;;;;14.80;11.78;;;;;;;14.20;69.72;100959.60;1795095;78;20986;-77
2022/11/12 11:42:09;;;;;;;14.87;10.28;;;;;;;15.01;66.45;100964.31;1790383;78;21000;-76
2022/11/12 11:45:03;;;;;;;16.07;10.93;;;;;;;15.71;64.77;100959.67;1794402;78;21122;-79
2022/11/12 11:48:21;;;;;;;16.25;10.98;;;;;;;15.85;61.86;100962.17;1795496;78;24582;-80
2022/11/12 11:51:27;;;;;;;13.18;10.50;;;;;;;15.60;62.61;100953.84;1792923;78;20978;-80
2022/11/12 11:54:27;;;;;;;15.43;11.88;;;;;;;15.22;63.17;100960.27;1796574;78;21067;-80
2022/11/12 11:57:19;;;;;;;16.85;11.33;;;;;;;14.84;64.15;100957.28;1793610;78;21026;-81
2022/11/12 12:00:19;;;;;;;15.43;11.40;;;;;;;14.49;64.90;100959.20;1763057;78;21028;-79
2022/11/12 12:03:18;;;;;;;18.17;11.57;;;;;;;14.18;65.67;100950.91;1770859;79;21300;-82
2022/11/12 12:06:20;;;;;;;13.85;11.33;;;;;;;13.82;66.61;100953.80;1770636;78;21521;-78
2022/11/12 12:09:29;;;;;;;14.80;11.78;;;;;;;13.48;67.54;100950.12;1798958;78;21118;-78
2022/11/12 12:12:29;;;;;;;15.38;11.63;;;;;;;13.26;68.53;100941.25;1759240;78;20998;-76
2022/11/12 12:15:45;;;;;;;16.77;12.20;;;;;;;13.04;69.52;100945.24;1760130;78;21033;-76
2022/11/12 12:18:57;;;;;;;17.07;13.10;;;;;;;12.83;70.10;100946.42;1767268;79;21104;-77
2022/11/12 12:21:45;;;;;;;16.82;12.23;;;;;;;12.63;70.90;100949.72;1761889;78;21546;-77
2022/11/12 12:24:45;;;;;;;15.80;12.20;;;;;;;12.59;71.44;100951.87;1766684;78;21001;-76
2022/11/12 12:27:35;;;;;;;14.98;11.65;;;;;;;12.49;71.66;100936.94;1762416;79;21078;-77
2022/11/12 12:30:23;;;;;;;19.77;12.98;;;;;;;12.34;71.96;100944.12;1770845;79;21107;-77
2022/11/12 12:33:20;;;;;;;14.23;12.03;;;;;;;12.20;72.39;100940.12;1770356;78;21147;-77
2022/11/12 12:36:18;;;;;;;17.25;13.00;;;;;;;12.10;72.79;100939.34;1771826;78;21602;-78
2022/11/12 12:39:15;;;;;;;17.92;12.37;;;;;;;12.01;73.19;100936.23;1771046;79;21032;-78
2022/11/12 12:42:06;;;;;;;13.68;10.90;;;;;;;11.93;73.54;100931.65;1730656;81;21004;-77
2022/11/12 12:45:03;;;;;;;19.77;13.45;;;;;;;11.96;73.61;100931.87;1758533;79;21481;-79
2022/11/12 12:47:48;;;;;;;14.50;12.13;;;;;;;11.98;73.62;100929.39;1767954;78;21078;-79
2022/11/12 12:50:35;;;;;;;16.45;13.30;;;;;;;11.91;74.02;100925.64;1753979;79;21046;-77
2022/11/12 12:53:32;;;;;;;15.78;11.95;;;;;;;11.85;74.30;100928.03;1744852;79;21529;-78
2022/11/12 12:56:43;;;;;;;18.55;13.58;;;;;;;11.75;74.77;100920.92;1763839;79;21591;-79
2022/11/12 12:59:28;;;;;;;15.10;11.22;;;;;;;11.72;74.97;100927.03;1803765;77;21076;-78
2022/11/12 13:02:20;;;;;;;16.73;12.37;;;;;;;11.73;75.10;100929.55;1808245;77;21512;-78
2022/11/12 13:05:06;;;;;;;15.80;12.33;;;;;;;11.74;75.18;100927.72;1803122;78;21032;-77
2022/11/12 13:10:58;;;;;;;15.18;12.33;;;;;;;11.63;75.93;100926.09;1831669;77;28043;-79
2022/11/12 13:13:43;;;;;;;22.60;14.87;;;;;;;11.56;76.11;100923.66;1789429;78;21124;-78
2022/11/12 13:16:54;;;;;;;16.42;11.55;;;;;;;11.51;76.27;100919.26;1769030;79;21901;-79
2022/11/12 13:20:04;;;;;;;14.50;12.25;;;;;;;11.53;76.40;100924.80;1768489;78;21020;-77
2022/11/12 13:22:49;;;;;;;19.95;13.62;;;;;;;11.57;76.40;100931.51;1786422;78;21073;-80
2022/11/12 13:25:34;;;;;;;18.50;14.00;;;;;;;11.51;76.35;100924.58;1790517;80;20993;-78
2022/11/12 13:28:19;;;;;;;20.20;14.05;;;;;;;11.43;76.59;100925.30;1773319;78;21005;-78